createdAt,value
2019-04-14T00:02:47.004Z,36.60
2019-04-14T00:07:53.818Z,36.70
2019-04-14T00:13:00.103Z,36.70
2019-04-14T00:18:05.792Z,36.60
2019-04-14T00:23:13.136Z,36.70
2019-04-14T00:28:19.021Z,36.70
2019-04-14T00:33:25.919Z,36.70
2019-04-14T00:38:35.319Z,36.90
2019-04-14T00:44:04.000Z,36.90
2019-04-14T00:49:09.768Z,37.00
2019-04-14T00:54:17.485Z,37.00
2019-04-14T00:59:23.241Z,37.00
2019-04-14T01:04:29.475Z,37.10
2019-04-14T01:09:36.890Z,37.10
2019-04-14T01:14:43.188Z,37.20
2019-04-14T01:19:48.983Z,37.10
2019-04-14T01:24:55.356Z,37.20
2019-04-14T01:30:02.559Z,37.20
2019-04-14T01:35:09.649Z,37.30
2019-04-14T01:40:16.410Z,37.30
2019-04-14T01:45:23.122Z,37.30
2019-04-14T01:50:49.556Z,37.40
2019-04-14T01:56:05.857Z,37.50
2019-04-14T02:01:15.144Z,37.50
2019-04-14T02:06:22.308Z,37.50
2019-04-14T02:11:29.190Z,37.50
2019-04-14T02:16:41.979Z,37.60
2019-04-14T02:21:43.460Z,37.60
2019-04-14T02:26:50.295Z,37.60
2019-04-14T02:32:25.821Z,37.70
2019-04-14T02:37:37.090Z,37.70
2019-04-14T02:42:41.926Z,37.80
2019-04-14T02:52:53.792Z,37.90
2019-04-14T02:58:04.012Z,38.00
2019-04-14T03:03:09.115Z,38.70
2019-04-14T03:08:18.313Z,38.10
2019-04-14T03:18:52.431Z,38.20
2019-04-14T03:24:24.210Z,38.20
2019-04-14T03:29:29.195Z,38.20
2019-04-14T03:34:43.036Z,38.30
2019-04-14T03:44:48.658Z,38.40
2019-04-14T03:50:00.763Z,38.50
2019-04-14T03:54:56.681Z,38.60
2019-04-14T03:59:47.833Z,38.60
2019-04-14T04:04:53.661Z,38.80
2019-04-14T04:10:13.781Z,38.80
2019-04-14T04:15:21.592Z,38.80
2019-04-14T04:20:52.518Z,38.90
2019-04-14T04:26:21.218Z,38.90
2019-04-14T04:31:56.869Z,39.00
2019-04-14T04:37:10.373Z,39.00
2019-04-14T04:42:16.181Z,39.10
2019-04-14T04:47:23.025Z,39.20
2019-04-14T04:52:28.780Z,40.00
2019-04-14T04:57:35.148Z,39.40
2019-04-14T05:02:41.784Z,39.50
2019-04-14T05:07:47.493Z,39.90
2019-04-14T05:13:03.020Z,39.50
2019-04-14T05:18:22.736Z,39.70
2019-04-14T05:23:28.429Z,39.50
2019-04-14T05:28:35.198Z,39.60
2019-04-14T05:33:41.132Z,39.60
2019-04-14T05:38:47.461Z,39.70
2019-04-14T05:43:58.044Z,39.80
2019-04-14T05:49:02.096Z,39.80
2019-04-14T05:54:09.979Z,39.80
2019-04-14T05:59:15.843Z,42.90
2019-04-14T06:04:22.182Z,42.90
2019-04-14T06:09:27.947Z,41.90
2019-04-14T06:14:33.592Z,40.90
2019-04-14T06:19:42.402Z,40.10
2019-04-14T06:24:48.414Z,39.70
2019-04-14T06:29:57.448Z,39.30
2019-04-14T06:35:11.905Z,39.10
2019-04-14T06:40:17.871Z,39.10
2019-04-14T06:45:23.587Z,38.90
2019-04-14T06:50:29.226Z,39.10
2019-04-14T06:55:36.399Z,39.20
2019-04-14T07:00:42.473Z,39.30
2019-04-14T07:05:48.169Z,39.40
2019-04-14T07:10:54.008Z,39.50
2019-04-14T07:16:00.637Z,39.60
2019-04-14T07:21:06.666Z,39.70
2019-04-14T07:26:13.733Z,39.80
2019-04-14T07:31:37.296Z,39.70
2019-04-14T07:37:00.916Z,39.90
2019-04-14T07:42:25.673Z,40.00
2019-04-14T07:47:49.052Z,40.20
2019-04-14T07:53:20.151Z,40.40
2019-04-14T07:58:48.641Z,40.30
2019-04-14T08:04:05.681Z,40.40
2019-04-14T08:09:11.489Z,40.40
2019-04-14T08:14:17.533Z,40.70
2019-04-14T08:19:23.196Z,40.70
2019-04-14T08:24:28.962Z,40.80
2019-04-14T08:29:34.636Z,40.90
2019-04-14T08:34:40.401Z,40.90
2019-04-14T08:39:46.468Z,40.90
2019-04-14T08:44:53.268Z,41.80
2019-04-14T08:50:03.234Z,41.00
2019-04-14T08:55:28.178Z,41.00
2019-04-14T09:00:55.741Z,41.10
2019-04-14T09:06:23.572Z,41.10
2019-04-14T09:11:37.307Z,41.10
2019-04-14T09:16:44.710Z,41.20
2019-04-14T09:21:50.566Z,41.20
2019-04-14T09:26:56.572Z,41.40
2019-04-14T09:32:02.300Z,41.30
2019-04-14T09:37:08.097Z,41.50
2019-04-14T09:42:13.621Z,41.60
2019-04-14T09:47:20.338Z,41.80
2019-04-14T09:52:25.908Z,42.00
2019-04-14T09:57:31.839Z,42.10
2019-04-14T10:02:37.752Z,42.20
2019-04-14T10:07:43.313Z,42.30
2019-04-14T10:12:49.160Z,42.30
2019-04-14T10:17:55.040Z,42.50
2019-04-14T10:23:00.586Z,42.60
2019-04-14T10:28:07.943Z,42.60
2019-04-14T10:33:13.615Z,42.60
2019-04-14T10:38:19.347Z,42.60
2019-04-14T10:43:24.965Z,42.50
2019-04-14T10:48:31.633Z,42.50
2019-04-14T10:53:37.376Z,42.50
2019-04-14T10:58:43.294Z,42.40
2019-04-14T11:03:49.252Z,42.50
2019-04-14T11:08:54.963Z,42.40
2019-04-14T11:14:00.876Z,42.30
2019-04-14T11:19:07.053Z,42.20
2019-04-14T11:24:12.920Z,42.10
2019-04-14T11:29:18.854Z,42.20
2019-04-14T11:34:29.076Z,42.20
2019-04-14T11:39:35.417Z,42.10
2019-04-14T11:44:41.488Z,42.30
2019-04-14T11:49:47.633Z,42.00
2019-04-14T11:54:53.990Z,41.90
2019-04-14T12:00:17.104Z,41.90
2019-04-14T12:05:41.994Z,41.80
2019-04-14T12:10:48.150Z,41.90
2019-04-14T12:15:53.954Z,41.90
2019-04-14T12:20:59.686Z,42.00
2019-04-14T12:26:06.155Z,41.90
2019-04-14T12:31:13.120Z,41.90
2019-04-14T12:36:18.997Z,42.00
2019-04-14T12:41:35.425Z,42.10
2019-04-14T12:46:53.784Z,42.10
2019-04-14T12:52:21.798Z,42.00
2019-04-14T12:57:37.453Z,42.00
2019-04-14T13:02:46.870Z,42.10
2019-04-14T13:07:52.874Z,42.20
2019-04-14T13:12:59.048Z,42.50
2019-04-14T13:18:04.896Z,42.30
2019-04-14T13:23:10.987Z,42.20
2019-04-14T13:28:16.585Z,42.30
2019-04-14T13:33:22.337Z,42.30
2019-04-14T13:38:28.173Z,42.30
2019-04-14T13:43:33.893Z,42.40
2019-04-14T13:48:40.158Z,42.60
2019-04-14T13:53:45.938Z,42.60
2019-04-14T13:58:51.514Z,42.40
2019-04-14T14:03:57.490Z,42.30
2019-04-14T14:09:06.090Z,42.10
2019-04-14T14:14:29.771Z,41.90
2019-04-14T14:19:41.109Z,41.80
2019-04-14T14:24:54.555Z,41.80
2019-04-14T14:30:00.500Z,41.70
2019-04-14T14:35:07.335Z,41.60
2019-04-14T14:40:13.553Z,41.60
2019-04-14T14:45:56.529Z,41.60
2019-04-14T14:51:20.830Z,41.50
2019-04-14T14:56:26.756Z,41.60
2019-04-14T15:01:32.782Z,41.60
2019-04-14T15:06:38.270Z,41.60
2019-04-14T15:11:44.282Z,41.70
2019-04-14T15:16:50.444Z,41.70
2019-04-14T15:21:56.213Z,41.70
2019-04-14T15:27:02.191Z,41.70
2019-04-14T15:32:08.155Z,41.80
2019-04-14T15:37:14.004Z,41.70
2019-04-14T15:42:20.040Z,41.70
2019-04-14T15:47:26.042Z,41.60
2019-04-14T15:52:33.134Z,41.70
2019-04-14T15:57:56.490Z,41.80
2019-04-14T16:03:19.588Z,41.70
2019-04-14T16:08:36.130Z,41.20
2019-04-14T16:14:04.004Z,41.80
2019-04-14T16:19:19.508Z,41.70
2019-04-14T16:24:25.300Z,41.60
2019-04-14T16:29:56.345Z,43.50
2019-04-14T16:35:09.967Z,44.50
2019-04-14T16:40:16.774Z,45.30
2019-04-14T16:45:22.757Z,45.10
2019-04-14T16:50:28.940Z,44.00
2019-04-14T16:55:55.949Z,42.10
2019-04-14T17:01:05.638Z,41.60
2019-04-14T17:06:15.255Z,40.00
2019-04-14T17:11:21.396Z,39.60
2019-04-14T17:16:47.235Z,39.20
2019-04-14T17:21:58.377Z,39.10
2019-04-14T17:27:15.763Z,39.10
2019-04-14T17:32:28.328Z,39.10
2019-04-14T17:37:59.199Z,39.20
2019-04-14T17:43:09.757Z,39.30
2019-04-14T17:48:43.134Z,39.40
2019-04-14T17:53:58.061Z,39.60
2019-04-14T17:59:28.883Z,39.70
2019-04-14T18:04:53.132Z,40.10
2019-04-14T18:10:16.331Z,40.40
2019-04-14T18:15:47.134Z,40.40
2019-04-14T18:20:56.093Z,40.50
2019-04-14T18:26:02.119Z,40.60
2019-04-14T18:31:44.635Z,40.70
2019-04-14T18:37:00.484Z,40.80
2019-04-14T18:42:16.407Z,41.00
2019-04-14T18:47:41.036Z,41.10
2019-04-14T18:52:58.990Z,41.10
2019-04-14T18:58:22.599Z,41.40
2019-04-14T19:03:28.417Z,41.50
2019-04-14T19:08:33.901Z,41.50
2019-04-14T19:13:40.294Z,41.70
2019-04-14T19:18:48.968Z,41.80
2019-04-14T19:23:55.000Z,41.90
2019-04-14T19:29:00.805Z,42.00
2019-04-14T19:34:06.736Z,42.10
2019-04-14T19:39:12.520Z,42.10
2019-04-14T19:44:18.980Z,42.20
2019-04-14T19:49:24.624Z,43.10
2019-04-14T19:54:30.516Z,42.50
2019-04-14T19:59:36.161Z,42.50
2019-04-14T20:04:42.042Z,42.70
2019-04-14T20:09:48.116Z,42.70
2019-04-14T20:14:54.264Z,42.90
2019-04-14T20:20:12.170Z,43.00
2019-04-14T20:25:43.301Z,43.10
2019-04-14T20:30:53.484Z,43.20
2019-04-14T20:35:59.600Z,43.20
2019-04-14T20:41:05.817Z,43.30
2019-04-14T20:46:12.212Z,43.40
2019-04-14T20:51:18.011Z,43.40
2019-04-14T20:56:24.282Z,43.50
2019-04-14T21:01:33.824Z,43.50
2019-04-14T21:07:10.669Z,43.50
2019-04-14T21:12:44.397Z,43.50
2019-04-14T21:18:06.304Z,43.50
2019-04-14T21:23:46.726Z,43.50
2019-04-14T21:29:06.593Z,43.70
2019-04-14T21:34:21.876Z,43.80
2019-04-14T21:39:58.209Z,43.80
2019-04-14T21:45:03.819Z,43.90
2019-04-14T21:50:10.307Z,43.80
2019-04-14T21:55:18.078Z,43.90
2019-04-14T22:01:14.758Z,44.50
2019-04-14T22:06:28.420Z,44.00
2019-04-14T22:11:34.115Z,43.90
2019-04-14T22:16:40.341Z,44.00
2019-04-14T22:21:47.540Z,44.00
2019-04-14T22:26:53.679Z,44.00
2019-04-14T22:31:59.547Z,44.20
2019-04-14T22:37:16.472Z,44.20
2019-04-14T22:42:22.608Z,44.30
2019-04-14T22:47:29.432Z,44.50
2019-04-14T22:52:35.344Z,44.50
2019-04-14T22:57:41.466Z,44.50
2019-04-14T23:03:09.274Z,44.60
2019-04-14T23:08:30.655Z,44.80
2019-04-14T23:13:53.408Z,44.60
2019-04-14T23:19:12.481Z,44.60
2019-04-14T23:24:23.125Z,44.50
2019-04-14T23:29:29.089Z,44.60
2019-04-14T23:34:35.052Z,44.50
2019-04-14T23:39:41.029Z,44.60
2019-04-14T23:44:47.047Z,44.60
2019-04-14T23:49:52.982Z,44.60
2019-04-14T23:54:58.727Z,44.60
